createdAt,value
2022-11-19T00:00:10.661Z,100927.50
2022-11-19T00:02:38.897Z,100931.88
2022-11-19T00:05:07.725Z,100922.03
2022-11-19T00:07:36.200Z,100904.38
2022-11-19T00:10:07.289Z,100919.25
2022-11-19T00:12:53.002Z,100940.41
2022-11-19T00:15:21.616Z,100937.63
2022-11-19T00:17:50.416Z,100899.88
2022-11-19T00:20:18.984Z,100935.69
2022-11-19T00:22:51.830Z,100942.66
2022-11-19T00:25:22.406Z,100913.59
2022-11-19T00:27:51.036Z,100903.84
2022-11-19T00:30:46.203Z,100927.53
2022-11-19T00:33:08.758Z,100921.94
2022-11-19T00:35:37.055Z,100942.81
2022-11-19T00:38:05.359Z,100935.16
2022-11-19T00:40:35.021Z,100921.75
2022-11-19T00:43:20.703Z,100942.69
2022-11-19T00:45:50.308Z,100943.44
2022-11-19T00:48:21.657Z,100938.97
2022-11-19T00:50:49.985Z,100949.34
2022-11-19T00:53:18.514Z,100919.31
2022-11-19T00:55:48.238Z,100949.94
2022-11-19T00:58:16.531Z,100952.56
2022-11-19T01:00:45.030Z,100961.28
2022-11-19T01:03:13.619Z,100967.53
2022-11-19T01:05:42.011Z,100948.16
2022-11-19T01:08:10.802Z,100965.84
2022-11-19T01:10:39.244Z,100980.22
2022-11-19T01:13:26.260Z,100977.50
2022-11-19T01:15:54.933Z,100966.63
2022-11-19T01:18:23.531Z,100968.19
2022-11-19T01:20:51.810Z,100942.84
2022-11-19T01:23:20.542Z,100962.97
2022-11-19T01:25:48.896Z,100971.81
2022-11-19T01:28:18.799Z,100980.69
2022-11-19T01:30:47.250Z,100985.06
2022-11-19T01:33:16.046Z,100997.41
2022-11-19T01:35:44.462Z,101003.41
2022-11-19T01:38:12.907Z,100994.44
2022-11-19T01:40:45.522Z,100994.66
2022-11-19T01:43:14.895Z,100956.72
2022-11-19T01:45:48.220Z,100984.88
2022-11-19T01:48:22.387Z,101003.31
2022-11-19T01:50:57.763Z,101009.28
2022-11-19T01:53:31.195Z,100982.06
2022-11-19T01:56:04.145Z,100976.63
2022-11-19T01:58:39.288Z,101011.69
2022-11-19T02:01:11.213Z,100997.38
2022-11-19T02:03:40.786Z,100990.94
2022-11-19T02:06:09.726Z,101021.56
2022-11-19T02:08:42.922Z,101018.28
2022-11-19T02:11:58.434Z,101023.28
2022-11-19T02:15:09.152Z,101018.84
2022-11-19T02:17:58.816Z,100995.63
2022-11-19T02:20:53.200Z,101013.88
2022-11-19T02:24:33.182Z,101030.25
2022-11-19T02:27:49.374Z,101023.88
2022-11-19T02:30:20.136Z,101026.47
2022-11-19T02:33:00.696Z,101038.72
2022-11-19T02:35:46.127Z,101037.38
2022-11-19T02:38:25.074Z,101025.88
2022-11-19T02:41:00.342Z,101032.47
2022-11-19T02:43:37.699Z,101044.78
2022-11-19T02:46:13.103Z,101054.25
2022-11-19T02:48:47.551Z,101052.75
2022-11-19T02:51:17.527Z,101019.03
2022-11-19T02:53:48.622Z,101033.91
2022-11-19T02:56:49.792Z,101049.25
2022-11-19T02:59:39.422Z,101037.47
2022-11-19T03:02:29.239Z,101033.38
2022-11-19T03:04:58.059Z,101061.50
2022-11-19T03:07:26.589Z,101071.84
2022-11-19T03:10:00.651Z,101057.47
2022-11-19T03:12:40.582Z,101078.63
2022-11-19T03:15:43.855Z,101037.47
2022-11-19T03:18:19.436Z,101064.84
2022-11-19T03:20:54.303Z,101053.13
2022-11-19T03:23:28.147Z,101075.09
2022-11-19T03:26:02.072Z,101076.47
2022-11-19T03:28:37.100Z,101080.78
2022-11-19T03:31:07.707Z,101036.63
2022-11-19T03:33:42.711Z,101062.25
2022-11-19T03:36:15.630Z,101077.28
2022-11-19T03:38:48.032Z,101078.16
2022-11-19T03:41:20.971Z,101041.81
2022-11-19T03:43:56.478Z,101065.25
2022-11-19T03:46:26.743Z,101066.97
2022-11-19T03:49:00.484Z,101077.44
2022-11-19T03:51:38.058Z,101078.19
2022-11-19T03:54:07.569Z,101071.22
2022-11-19T03:56:40.367Z,101075.22
2022-11-19T03:59:12.828Z,101090.66
2022-11-19T04:01:42.061Z,101098.88
2022-11-19T04:04:28.980Z,101097.06
2022-11-19T04:06:57.376Z,101108.94
2022-11-19T04:09:25.674Z,101110.19
2022-11-19T04:14:21.443Z,101110.00
2022-11-19T04:16:50.168Z,101122.28
2022-11-19T04:19:20.106Z,101126.69
2022-11-19T04:21:48.940Z,101126.53
2022-11-19T04:24:17.840Z,101093.78
2022-11-19T04:26:46.085Z,101131.94
2022-11-19T04:29:14.594Z,101129.88
2022-11-19T04:31:43.206Z,101087.66
2022-11-19T04:34:11.458Z,101128.41
2022-11-19T04:36:42.288Z,101130.13
2022-11-19T04:39:12.672Z,101124.53
2022-11-19T04:41:41.714Z,101117.72
2022-11-19T04:44:10.052Z,101131.47
2022-11-19T04:46:38.420Z,101124.63
2022-11-19T04:49:06.964Z,101134.75
2022-11-19T04:51:35.242Z,101141.66
2022-11-19T04:54:05.315Z,101151.50
2022-11-19T04:56:33.603Z,101139.94
2022-11-19T04:59:02.175Z,101147.34
2022-11-19T05:01:30.674Z,101150.44
2022-11-19T05:03:58.996Z,101152.41
2022-11-19T05:06:27.349Z,101119.84
2022-11-19T05:08:55.629Z,101129.47
2022-11-19T05:11:25.338Z,101167.16
2022-11-19T05:13:53.618Z,101167.69
2022-11-19T05:16:21.885Z,101174.72
2022-11-19T05:18:50.139Z,101167.88
2022-11-19T05:21:18.444Z,101177.59
2022-11-19T05:23:46.648Z,101180.53
2022-11-19T05:26:14.915Z,101170.84
2022-11-19T05:28:44.580Z,101154.94
2022-11-19T05:31:12.970Z,101175.16
2022-11-19T05:33:41.620Z,101189.59
2022-11-19T05:36:10.564Z,101190.31
2022-11-19T05:38:39.072Z,101184.41
2022-11-19T05:41:07.787Z,101190.34
2022-11-19T05:43:36.150Z,101188.19
2022-11-19T05:46:06.006Z,101175.16
2022-11-19T05:48:34.598Z,101189.38
2022-11-19T05:51:03.110Z,101191.63
2022-11-19T05:53:31.413Z,101194.91
2022-11-19T05:55:59.628Z,101174.22
2022-11-19T05:58:27.874Z,101196.50
2022-11-19T06:00:56.644Z,101203.84
2022-11-19T06:03:26.326Z,101187.72
2022-11-19T06:05:54.660Z,101208.78
2022-11-19T06:08:22.898Z,101183.47
2022-11-19T06:10:51.373Z,101222.13
2022-11-19T06:13:20.168Z,101227.53
2022-11-19T06:15:48.722Z,101222.44
2022-11-19T06:18:17.006Z,101227.38
2022-11-19T06:20:46.807Z,101233.13
2022-11-19T06:23:15.043Z,101237.25
2022-11-19T06:25:43.301Z,101225.97
2022-11-19T06:28:11.623Z,101233.75
2022-11-19T06:30:40.125Z,101240.59
2022-11-19T06:33:08.832Z,101247.03
2022-11-19T06:35:37.102Z,101244.06
2022-11-19T06:38:06.814Z,101253.81
2022-11-19T06:40:35.096Z,101247.69
2022-11-19T06:43:03.387Z,101254.09
2022-11-19T06:45:31.812Z,101236.06
2022-11-19T06:48:00.043Z,101265.13
2022-11-19T06:50:28.317Z,101270.44
2022-11-19T06:52:56.599Z,101274.97
2022-11-19T06:55:27.499Z,101287.25
2022-11-19T06:57:56.227Z,101280.00
2022-11-19T07:00:24.924Z,101285.50
2022-11-19T07:02:53.172Z,101281.59
2022-11-19T07:05:21.591Z,101290.53
2022-11-19T07:07:49.784Z,101289.44
2022-11-19T07:10:18.431Z,101289.38
2022-11-19T07:12:48.062Z,101289.03
2022-11-19T07:15:17.034Z,101293.72
2022-11-19T07:17:45.314Z,101282.94
2022-11-19T07:20:14.525Z,101291.75
2022-11-19T07:22:43.405Z,101268.22
2022-11-19T07:25:13.488Z,101296.66
2022-11-19T07:27:42.641Z,101267.66
2022-11-19T07:30:13.788Z,101306.00
2022-11-19T07:32:42.191Z,101307.16
2022-11-19T07:35:11.920Z,101295.81
2022-11-19T07:37:40.913Z,101301.19
2022-11-19T07:40:11.517Z,101315.47
2022-11-19T07:42:50.936Z,101287.78
2022-11-19T07:45:23.342Z,101297.91
2022-11-19T07:47:51.589Z,101286.03
2022-11-19T07:50:20.683Z,101307.59
2022-11-19T07:52:49.022Z,101274.59
2022-11-19T07:55:17.612Z,101307.41
2022-11-19T07:57:46.055Z,101322.69
2022-11-19T08:00:16.155Z,101306.50
2022-11-19T08:02:46.008Z,101327.06
2022-11-19T08:05:14.666Z,101329.09
2022-11-19T08:07:43.034Z,101335.47
2022-11-19T08:10:12.722Z,101313.63
2022-11-19T08:12:41.045Z,101348.44
2022-11-19T08:15:11.067Z,101351.59
2022-11-19T08:17:56.637Z,101350.41
2022-11-19T08:20:26.381Z,101352.78
2022-11-19T08:22:54.803Z,101347.28
2022-11-19T08:25:23.056Z,101356.78
2022-11-19T08:27:51.259Z,101358.84
2022-11-19T08:30:19.836Z,101365.66
2022-11-19T08:32:48.233Z,101361.19
2022-11-19T08:35:16.664Z,101351.72
2022-11-19T08:37:47.947Z,101370.47
2022-11-19T08:40:17.139Z,101368.06
2022-11-19T08:42:59.917Z,101380.34
2022-11-19T08:45:31.336Z,101359.94
2022-11-19T08:48:01.793Z,101351.75
2022-11-19T08:50:31.820Z,101363.63
2022-11-19T08:53:03.566Z,101372.56
2022-11-19T08:55:33.767Z,101356.59
2022-11-19T08:58:04.674Z,101366.50
2022-11-19T09:00:35.805Z,101389.22
2022-11-19T09:03:04.296Z,101346.84
2022-11-19T09:05:35.419Z,101375.97
2022-11-19T09:08:05.126Z,101379.38
2022-11-19T09:10:33.745Z,101379.69
2022-11-19T09:13:03.429Z,101348.16
2022-11-19T09:15:32.025Z,101366.78
2022-11-19T09:18:00.436Z,101369.16
2022-11-19T09:20:28.682Z,101396.19
2022-11-19T09:22:57.374Z,101390.69
2022-11-19T09:25:27.205Z,101388.25
2022-11-19T09:27:56.079Z,101398.97
2022-11-19T09:30:24.515Z,101405.63
2022-11-19T09:32:52.925Z,101386.22
2022-11-19T09:35:21.274Z,101413.22
2022-11-19T09:37:49.613Z,101415.16
2022-11-19T09:40:21.725Z,101400.88
2022-11-19T09:43:08.483Z,101421.47
2022-11-19T09:45:54.860Z,101421.09
2022-11-19T09:48:34.926Z,101382.59
2022-11-19T09:51:11.245Z,101386.88
2022-11-19T09:53:46.550Z,101420.72
2022-11-19T09:56:27.140Z,101418.69
2022-11-19T09:58:58.617Z,101429.47
2022-11-19T10:01:30.447Z,101427.94
2022-11-19T10:04:00.417Z,101430.88
2022-11-19T10:06:33.248Z,101393.41
2022-11-19T10:09:25.259Z,101426.88
2022-11-19T10:12:12.386Z,101433.59
2022-11-19T10:15:08.104Z,101426.75
2022-11-19T10:17:53.008Z,101437.91
2022-11-19T10:20:49.059Z,101408.56
2022-11-19T10:23:20.046Z,101419.34
2022-11-19T10:25:50.676Z,101403.13
2022-11-19T10:28:23.254Z,101443.88
2022-11-19T10:30:56.439Z,101410.09
2022-11-19T10:33:31.954Z,101442.84
2022-11-19T10:36:05.556Z,101437.34
2022-11-19T10:38:38.890Z,101448.19
2022-11-19T10:41:14.984Z,101454.09
2022-11-19T10:43:48.733Z,101428.22
2022-11-19T10:46:23.906Z,101441.97
2022-11-19T10:48:56.019Z,101439.50
2022-11-19T10:51:29.726Z,101422.66
2022-11-19T10:53:58.981Z,101404.44
2022-11-19T10:56:39.464Z,101437.66
2022-11-19T10:59:13.936Z,101410.13
2022-11-19T11:01:46.885Z,101434.63
2022-11-19T11:04:20.080Z,101427.47
2022-11-19T11:06:55.926Z,101403.38
2022-11-19T11:09:35.509Z,101420.59
2022-11-19T11:12:31.501Z,101392.19
2022-11-19T11:15:09.035Z,101420.28
2022-11-19T11:17:39.136Z,101420.44
2022-11-19T11:20:21.443Z,101416.97
2022-11-19T11:23:02.896Z,101392.88
2022-11-19T11:25:31.470Z,101418.00
2022-11-19T11:28:08.230Z,101416.69
2022-11-19T11:30:36.622Z,101410.72
2022-11-19T11:36:01.690Z,101427.94
2022-11-19T11:38:31.266Z,101405.03
2022-11-19T11:41:43.995Z,101403.97
2022-11-19T11:44:04.403Z,101423.00
2022-11-19T11:46:44.301Z,101425.53
2022-11-19T11:49:31.808Z,101427.91
2022-11-19T11:52:20.952Z,101430.34
2022-11-19T11:55:01.066Z,101405.06
2022-11-19T11:57:31.699Z,101392.69
2022-11-19T12:00:00.964Z,101428.72
2022-11-19T12:02:33.005Z,101433.28
2022-11-19T12:05:05.133Z,101437.31
2022-11-19T12:08:04.793Z,101410.72
2022-11-19T12:10:45.125Z,101425.56
2022-11-19T12:13:57.743Z,101424.88
2022-11-19T12:16:42.330Z,101428.41
2022-11-19T12:19:53.053Z,101421.25
2022-11-19T12:22:35.973Z,101398.34
2022-11-19T12:25:31.239Z,101419.19
2022-11-19T12:28:25.919Z,101416.16
2022-11-19T12:31:12.161Z,101419.13
2022-11-19T12:34:05.775Z,101402.84
2022-11-19T12:36:48.494Z,101378.19
2022-11-19T12:39:37.416Z,101423.88
2022-11-19T12:42:31.301Z,101393.97
2022-11-19T12:45:12.179Z,101424.22
2022-11-19T12:48:04.049Z,101421.09
2022-11-19T12:50:43.603Z,101405.13
2022-11-19T12:53:27.594Z,101422.69
2022-11-19T12:56:08.478Z,101431.00
2022-11-19T12:58:47.978Z,101426.44
2022-11-19T13:01:22.210Z,101430.19
2022-11-19T13:04:03.852Z,101426.56
2022-11-19T13:06:40.441Z,101404.31
2022-11-19T13:09:17.151Z,101428.00
2022-11-19T13:11:55.459Z,101414.97
2022-11-19T13:14:33.379Z,101415.84
2022-11-19T13:17:03.114Z,101418.56
2022-11-19T13:19:35.074Z,101426.84
2022-11-19T13:22:08.464Z,101422.38
2022-11-19T13:24:42.606Z,101403.75
2022-11-19T13:27:20.196Z,101432.53
2022-11-19T13:30:00.117Z,101428.59
2022-11-19T13:32:38.526Z,101429.59
2022-11-19T13:35:19.674Z,101434.41
2022-11-19T13:38:01.159Z,101430.31
2022-11-19T13:40:36.818Z,101432.94
2022-11-19T13:43:34.700Z,101423.06
2022-11-19T13:46:19.404Z,101426.94
2022-11-19T13:48:57.657Z,101416.53
2022-11-19T13:51:33.285Z,101422.94
2022-11-19T13:54:04.342Z,101421.81
2022-11-19T13:56:43.892Z,101399.38
2022-11-19T13:59:30.250Z,101397.78
2022-11-19T14:02:43.920Z,101421.88
2022-11-19T14:05:59.757Z,101415.59
2022-11-19T14:08:45.241Z,101394.81
2022-11-19T14:11:43.158Z,101418.72
2022-11-19T14:14:49.856Z,101425.34
2022-11-19T14:17:48.386Z,101430.69
2022-11-19T14:23:30.372Z,101435.06
2022-11-19T14:26:16.528Z,101434.75
2022-11-19T14:28:48.427Z,101397.72
2022-11-19T14:31:17.634Z,101433.72
2022-11-19T14:34:01.677Z,101427.16
2022-11-19T14:36:48.854Z,101430.81
2022-11-19T14:39:25.318Z,101439.25
2022-11-19T14:42:15.842Z,101431.44
2022-11-19T14:44:44.594Z,101405.41
2022-11-19T14:47:38.436Z,101428.41
2022-11-19T14:50:23.455Z,101428.78
2022-11-19T14:52:55.128Z,101431.00
2022-11-19T14:55:27.999Z,101430.13
2022-11-19T14:58:02.444Z,101426.88
2022-11-19T15:00:36.418Z,101422.38
2022-11-19T15:03:08.590Z,101449.75
2022-11-19T15:05:42.073Z,101444.44
2022-11-19T15:08:47.004Z,101425.03
2022-11-19T15:11:17.727Z,101439.84
2022-11-19T15:13:47.480Z,101438.91
2022-11-19T15:16:20.161Z,101443.34
2022-11-19T15:19:24.281Z,101448.72
2022-11-19T15:22:44.303Z,101445.94
2022-11-19T15:25:30.635Z,101445.63
2022-11-19T15:28:29.029Z,101442.94
2022-11-19T15:31:23.826Z,101442.47
2022-11-19T15:35:03.819Z,101459.22
2022-11-19T15:37:47.035Z,101466.69
2022-11-19T15:40:20.782Z,101458.72
2022-11-19T15:42:58.123Z,101471.09
2022-11-19T15:45:32.533Z,101472.00
2022-11-19T15:48:13.869Z,101455.53
2022-11-19T15:50:44.979Z,101476.63
2022-11-19T15:53:20.443Z,101451.16
2022-11-19T15:55:54.131Z,101466.88
2022-11-19T15:58:28.507Z,101472.22
2022-11-19T16:00:58.320Z,101467.75
2022-11-19T16:03:26.702Z,101469.63
2022-11-19T16:06:05.654Z,101436.00
2022-11-19T16:08:34.668Z,101459.00
2022-11-19T16:11:21.222Z,101461.56
2022-11-19T16:14:12.198Z,101450.00
2022-11-19T16:16:59.403Z,101458.25
2022-11-19T16:19:27.667Z,101458.38
2022-11-19T16:22:00.854Z,101462.84
2022-11-19T16:24:48.437Z,101467.69
2022-11-19T16:27:23.110Z,101463.19
2022-11-19T16:29:52.708Z,101452.34
2022-11-19T16:32:25.645Z,101465.72
2022-11-19T16:34:53.985Z,101445.56
2022-11-19T16:37:23.489Z,101464.25
2022-11-19T16:39:54.148Z,101476.28
2022-11-19T16:42:28.348Z,101485.19
2022-11-19T16:45:06.197Z,101462.22
2022-11-19T16:47:39.863Z,101479.94
2022-11-19T16:50:26.964Z,101474.31
2022-11-19T16:52:56.381Z,101444.22
2022-11-19T16:55:52.569Z,101485.03
2022-11-19T16:58:26.285Z,101469.88
2022-11-19T17:00:59.565Z,101489.72
2022-11-19T17:03:37.019Z,101485.47
2022-11-19T17:06:09.036Z,101476.91
2022-11-19T17:08:39.456Z,101487.78
2022-11-19T17:11:41.001Z,101479.31
2022-11-19T17:14:21.501Z,101484.56
2022-11-19T17:16:52.445Z,101477.75
2022-11-19T17:19:34.388Z,101488.81
2022-11-19T17:22:05.984Z,101472.84
2022-11-19T17:24:41.882Z,101489.94
2022-11-19T17:27:23.903Z,101497.75
2022-11-19T17:30:02.883Z,101497.63
2022-11-19T17:32:40.067Z,101494.06
2022-11-19T17:35:35.167Z,101501.56
2022-11-19T17:38:11.460Z,101497.91
2022-11-19T17:40:42.092Z,101492.44
2022-11-19T17:43:29.531Z,101493.03
2022-11-19T17:45:57.903Z,101472.53
2022-11-19T17:48:28.288Z,101492.75
2022-11-19T17:50:58.585Z,101491.88
2022-11-19T17:53:26.894Z,101491.97
2022-11-19T17:55:58.116Z,101495.22
2022-11-19T17:58:26.353Z,101497.00
2022-11-19T18:00:54.760Z,101493.44
2022-11-19T18:03:23.203Z,101506.34
2022-11-19T18:05:51.826Z,101492.47
2022-11-19T18:08:21.508Z,101494.94
2022-11-19T18:10:50.615Z,101487.09
2022-11-19T18:13:25.267Z,101493.03
2022-11-19T18:15:53.717Z,101480.31
2022-11-19T18:18:21.905Z,101499.91
2022-11-19T18:20:51.216Z,101498.03
2022-11-19T18:23:20.925Z,101498.69
2022-11-19T18:25:49.235Z,101496.03
2022-11-19T18:28:17.622Z,101490.84
2022-11-19T18:30:45.866Z,101494.25
2022-11-19T18:33:14.352Z,101497.38
2022-11-19T18:35:42.670Z,101497.16
2022-11-19T18:38:10.935Z,101490.72
2022-11-19T18:40:42.222Z,101501.53
2022-11-19T18:43:28.176Z,101495.75
2022-11-19T18:45:56.460Z,101497.22
2022-11-19T18:48:24.838Z,101482.13
2022-11-19T18:50:53.766Z,101496.41
2022-11-19T18:53:22.064Z,101494.44
2022-11-19T18:55:51.923Z,101489.31
2022-11-19T18:58:20.516Z,101492.78
2022-11-19T19:00:49.074Z,101486.47
2022-11-19T19:03:17.467Z,101493.84
2022-11-19T19:05:45.694Z,101487.69
2022-11-19T19:08:14.136Z,101483.97
2022-11-19T19:10:43.040Z,101459.97
2022-11-19T19:13:11.698Z,101488.13
2022-11-19T19:15:40.010Z,101488.19
2022-11-19T19:18:11.897Z,101488.84
2022-11-19T19:20:40.223Z,101485.31
2022-11-19T19:23:08.897Z,101490.66
2022-11-19T19:25:37.399Z,101489.81
2022-11-19T19:28:06.118Z,101501.88
2022-11-19T19:30:36.247Z,101494.56
2022-11-19T19:33:05.165Z,101475.94
2022-11-19T19:35:33.452Z,101499.75
2022-11-19T19:38:01.701Z,101503.16
2022-11-19T19:40:30.091Z,101505.38
2022-11-19T19:43:03.174Z,101505.69
2022-11-19T19:45:31.547Z,101505.59
2022-11-19T19:48:01.166Z,101486.72
2022-11-19T19:50:29.642Z,101508.44
2022-11-19T19:52:59.106Z,101512.72
2022-11-19T19:55:27.770Z,101512.22
2022-11-19T19:57:56.510Z,101504.88
2022-11-19T20:00:24.872Z,101514.25
2022-11-19T20:02:53.605Z,101517.31
2022-11-19T20:05:23.192Z,101514.72
2022-11-19T20:07:51.418Z,101513.97
2022-11-19T20:10:19.880Z,101508.94
2022-11-19T20:13:05.651Z,101503.69
2022-11-19T20:15:35.192Z,101517.25
2022-11-19T20:18:03.526Z,101516.63
2022-11-19T20:20:34.116Z,101512.75
2022-11-19T20:23:02.557Z,101508.81
2022-11-19T20:25:30.870Z,101507.44
2022-11-19T20:27:59.275Z,101523.41
2022-11-19T20:30:27.584Z,101528.25
2022-11-19T20:32:55.898Z,101526.75
2022-11-19T20:35:24.685Z,101505.81
2022-11-19T20:38:00.771Z,101540.97
2022-11-19T20:40:31.832Z,101530.72
2022-11-19T20:43:17.831Z,101545.03
2022-11-19T20:45:46.179Z,101549.16
2022-11-19T20:48:14.430Z,101534.59
2022-11-19T20:50:42.960Z,101551.97
2022-11-19T20:53:12.753Z,101550.31
2022-11-19T20:56:03.870Z,101546.53
2022-11-19T20:58:29.672Z,101491.91
2022-11-19T21:01:03.667Z,101527.94
2022-11-19T21:03:33.862Z,101526.31
2022-11-19T21:06:06.573Z,101516.03
2022-11-19T21:08:37.553Z,101548.38
2022-11-19T21:11:12.561Z,101547.78
2022-11-19T21:13:41.251Z,101516.00
2022-11-19T21:16:13.797Z,101518.06
2022-11-19T21:18:42.867Z,101528.88
2022-11-19T21:21:12.884Z,101544.13
2022-11-19T21:23:43.315Z,101537.81
2022-11-19T21:26:16.355Z,101543.59
2022-11-19T21:28:46.237Z,101544.63
2022-11-19T21:31:15.477Z,101492.06
2022-11-19T21:33:43.997Z,101534.03
2022-11-19T21:36:12.502Z,101532.41
2022-11-19T21:38:42.304Z,101534.78
2022-11-19T21:41:10.609Z,101533.03
2022-11-19T21:43:38.873Z,101499.25
2022-11-19T21:46:08.924Z,101517.69
2022-11-19T21:48:39.391Z,101464.94
2022-11-19T21:51:09.263Z,101527.63
2022-11-19T21:53:37.747Z,101529.72
2022-11-19T21:56:08.718Z,101515.22
2022-11-19T21:58:37.017Z,101527.59
2022-11-19T22:01:06.951Z,101511.97
2022-11-19T22:03:36.829Z,101543.19
2022-11-19T22:06:08.693Z,101520.81
2022-11-19T22:08:39.595Z,101535.56
2022-11-19T22:11:25.216Z,101546.78
2022-11-19T22:13:54.627Z,101536.31
2022-11-19T22:16:23.292Z,101552.53
2022-11-19T22:18:51.900Z,101550.63
2022-11-19T22:21:20.320Z,101525.88
2022-11-19T22:23:48.615Z,101548.38
2022-11-19T22:26:18.374Z,101555.66
2022-11-19T22:28:46.670Z,101558.69
2022-11-19T22:31:15.761Z,101560.25
2022-11-19T22:33:44.180Z,101553.50
2022-11-19T22:36:13.073Z,101547.56
2022-11-19T22:38:41.343Z,101563.47
2022-11-19T22:41:12.220Z,101561.72
2022-11-19T22:43:44.190Z,101529.72
2022-11-19T22:46:14.237Z,101557.19
2022-11-19T22:48:42.928Z,101516.25
2022-11-19T22:51:14.838Z,101552.13
2022-11-19T22:53:44.232Z,101535.38
2022-11-19T22:56:15.140Z,101545.19
2022-11-19T22:58:45.541Z,101488.56
2022-11-19T23:01:18.635Z,101537.00
2022-11-19T23:03:47.436Z,101506.84
2022-11-19T23:06:16.189Z,101534.94
2022-11-19T23:08:44.961Z,101533.25
2022-11-19T23:11:15.389Z,101506.09
2022-11-19T23:13:45.097Z,101517.78
2022-11-19T23:16:16.710Z,101514.59
2022-11-19T23:18:50.927Z,101516.22
2022-11-19T23:21:22.196Z,101500.72
2022-11-19T23:23:51.212Z,101483.63
2022-11-19T23:26:21.996Z,101501.63
2022-11-19T23:28:52.770Z,101504.97
2022-11-19T23:31:23.851Z,101469.88
2022-11-19T23:33:58.810Z,101497.81
2022-11-19T23:36:30.411Z,101500.41
2022-11-19T23:38:59.925Z,101505.00
2022-11-19T23:41:29.361Z,101496.56
2022-11-19T23:43:59.256Z,101504.53
2022-11-19T23:46:30.087Z,101468.50
2022-11-19T23:49:00.573Z,101485.03
2022-11-19T23:51:32.498Z,101497.00
2022-11-19T23:54:01.083Z,101453.75
2022-11-19T23:56:32.267Z,101447.59
2022-11-19T23:59:03.626Z,101433.06
